createdAt,value
2022-12-31T00:00:29.487Z,102301.81
2022-12-31T00:02:56.970Z,102300.03
2022-12-31T00:05:27.516Z,102298.34
2022-12-31T00:07:54.318Z,102293.97
2022-12-31T00:10:24.539Z,102303.59
2022-12-31T00:12:54.086Z,102303.63
2022-12-31T00:15:23.337Z,102304.47
2022-12-31T00:17:50.280Z,102296.59
2022-12-31T00:20:17.757Z,102307.94
2022-12-31T00:22:47.935Z,102307.09
2022-12-31T00:25:21.257Z,102307.16
2022-12-31T00:27:52.813Z,102294.91
2022-12-31T00:30:20.983Z,102297.56
2022-12-31T00:33:00.388Z,102303.63
2022-12-31T00:35:31.518Z,102306.31
2022-12-31T00:37:58.379Z,102308.91
2022-12-31T00:40:25.520Z,102298.44
2022-12-31T00:43:02.749Z,102304.53
2022-12-31T00:45:34.563Z,102301.88
2022-12-31T00:48:04.523Z,102304.56
2022-12-31T00:50:34.371Z,102298.44
2022-12-31T00:53:04.814Z,102303.69
2022-12-31T00:55:31.678Z,102289.69
2022-12-31T00:58:04.415Z,102306.34
2022-12-31T01:00:40.874Z,102312.44
2022-12-31T01:03:15.140Z,102309.78
2022-12-31T01:05:43.993Z,102315.06
2022-12-31T01:08:13.851Z,102325.59
2022-12-31T01:11:13.971Z,102335.19
2022-12-31T01:13:46.398Z,102340.44
2022-12-31T01:16:17.657Z,102348.34
2022-12-31T01:18:53.800Z,102350.88
2022-12-31T01:21:23.742Z,102353.47
2022-12-31T01:23:50.782Z,102344.69
2022-12-31T01:26:26.899Z,102349.16
2022-12-31T01:29:03.013Z,102354.47
2022-12-31T01:31:33.463Z,102357.13
2022-12-31T01:34:08.357Z,102364.19
2022-12-31T01:36:36.927Z,102364.09
2022-12-31T01:39:06.253Z,102368.53
2022-12-31T01:41:42.732Z,102363.16
2022-12-31T01:44:25.010Z,102371.13
2022-12-31T01:47:01.028Z,102372.00
2022-12-31T01:49:45.834Z,102365.91
2022-12-31T01:52:32.096Z,102374.63
2022-12-31T01:55:13.623Z,102368.50
2022-12-31T01:57:44.333Z,102374.69
2022-12-31T02:00:14.913Z,102370.25
2022-12-31T02:02:58.812Z,102364.09
2022-12-31T02:05:40.866Z,102372.00
2022-12-31T02:08:22.857Z,102373.69
2022-12-31T02:10:52.843Z,102373.72
2022-12-31T02:13:19.846Z,102382.53
2022-12-31T02:16:24.876Z,102383.34
2022-12-31T02:19:17.132Z,102394.72
2022-12-31T02:22:01.188Z,102387.81
2022-12-31T02:24:47.730Z,102393.09
2022-12-31T02:27:41.066Z,102380.84
2022-12-31T02:30:14.587Z,102389.59
2022-12-31T02:33:24.603Z,102381.66
2022-12-31T02:36:03.449Z,102382.47
2022-12-31T02:38:34.774Z,102378.97
2022-12-31T02:41:02.198Z,102372.00
2022-12-31T02:43:29.216Z,102366.78
2022-12-31T02:46:11.465Z,102368.53
2022-12-31T02:49:06.605Z,102367.69
2022-12-31T02:51:58.415Z,102369.41
2022-12-31T02:54:48.616Z,102366.78
2022-12-31T02:57:30.320Z,102371.13
2022-12-31T03:00:31.004Z,102377.31
2022-12-31T03:03:00.035Z,102379.09
2022-12-31T03:05:33.689Z,102380.81
2022-12-31T03:08:04.929Z,102372.00
2022-12-31T03:10:35.010Z,102377.28
2022-12-31T03:13:02.806Z,102379.03
2022-12-31T03:15:39.304Z,102373.75
2022-12-31T03:18:16.912Z,102384.22
2022-12-31T03:21:10.012Z,102386.81
2022-12-31T03:24:05.293Z,102378.94
2022-12-31T03:26:32.692Z,102389.41
2022-12-31T03:29:00.324Z,102400.97
2022-12-31T03:31:27.553Z,102397.50
2022-12-31T03:33:59.053Z,102399.25
2022-12-31T03:36:26.680Z,102401.91
2022-12-31T03:38:57.136Z,102403.66
2022-12-31T03:41:27.026Z,102413.31
2022-12-31T03:43:56.877Z,102405.41
2022-12-31T03:46:23.744Z,102403.66
2022-12-31T03:48:53.091Z,102410.69
2022-12-31T03:51:19.918Z,102408.03
2022-12-31T03:53:46.726Z,102406.25
2022-12-31T03:56:16.708Z,102406.25
2022-12-31T03:58:46.535Z,102412.41
2022-12-31T04:01:16.445Z,102398.34
2022-12-31T04:03:52.092Z,102399.31
2022-12-31T04:06:24.595Z,102404.53
2022-12-31T04:08:52.715Z,102404.50
2022-12-31T04:11:25.044Z,102401.88
2022-12-31T04:13:54.915Z,102398.34
2022-12-31T04:16:22.338Z,102401.09
2022-12-31T04:18:54.864Z,102399.41
2022-12-31T04:21:34.765Z,102400.25
2022-12-31T04:24:03.102Z,102395.94
2022-12-31T04:26:35.981Z,102396.75
2022-12-31T04:29:02.898Z,102400.22
2022-12-31T04:31:31.486Z,102395.84
2022-12-31T04:33:59.579Z,102395.88
2022-12-31T04:36:29.461Z,102396.78
2022-12-31T04:39:02.413Z,102399.44
2022-12-31T04:41:31.452Z,102408.22
2022-12-31T04:43:59.756Z,102393.34
2022-12-31T04:49:13.167Z,102395.94
2022-12-31T04:51:44.896Z,102410.88
2022-12-31T04:54:26.560Z,102416.09
2022-12-31T04:57:02.414Z,102420.34
2022-12-31T04:59:32.412Z,102423.91
2022-12-31T05:02:01.889Z,102419.53
2022-12-31T05:04:28.961Z,102429.19
2022-12-31T05:06:58.687Z,102437.94
2022-12-31T05:09:34.935Z,102446.66
2022-12-31T05:12:01.823Z,102441.38
2022-12-31T05:14:28.621Z,102444.88
2022-12-31T05:17:04.537Z,102451.88
2022-12-31T05:19:31.417Z,102455.13
2022-12-31T05:22:21.526Z,102456.88
2022-12-31T05:24:48.509Z,102476.44
2022-12-31T05:27:15.303Z,102486.75
2022-12-31T05:29:53.460Z,102485.97
2022-12-31T05:32:23.201Z,102494.34
2022-12-31T05:34:50.057Z,102503.88
2022-12-31T05:37:16.898Z,102497.81
2022-12-31T05:39:46.881Z,102498.56
2022-12-31T05:42:16.214Z,102492.84
2022-12-31T05:44:43.086Z,102492.94
2022-12-31T05:47:10.037Z,102500.53
2022-12-31T05:49:45.870Z,102501.72
2022-12-31T05:52:12.806Z,102505.25
2022-12-31T05:54:39.783Z,102511.09
2022-12-31T05:57:08.955Z,102507.53
2022-12-31T05:59:36.059Z,102509.19
2022-12-31T06:02:02.924Z,102517.63
2022-12-31T06:04:31.912Z,102529.88
2022-12-31T06:07:01.914Z,102536.06
2022-12-31T06:09:28.817Z,102533.44
2022-12-31T06:11:55.820Z,102534.28
2022-12-31T06:14:22.937Z,102537.03
2022-12-31T06:16:51.329Z,102534.53
2022-12-31T06:19:18.345Z,102530.41
2022-12-31T06:21:45.410Z,102535.53
2022-12-31T06:24:12.530Z,102547.59
2022-12-31T06:26:39.470Z,102545.88
2022-12-31T06:29:12.207Z,102557.25
2022-12-31T06:31:41.225Z,102567.81
2022-12-31T06:34:08.184Z,102562.75
2022-12-31T06:36:39.721Z,102574.94
2022-12-31T06:39:09.544Z,102578.50
2022-12-31T06:41:36.562Z,102587.19
2022-12-31T06:44:03.505Z,102585.53
2022-12-31T06:46:30.288Z,102588.84
2022-12-31T06:48:57.125Z,102601.75
2022-12-31T06:51:25.540Z,102590.47
2022-12-31T06:53:52.594Z,102589.19
2022-12-31T06:56:33.027Z,102593.16
2022-12-31T06:59:01.593Z,102597.59
2022-12-31T07:01:36.774Z,102596.47
2022-12-31T07:04:29.188Z,102608.88
2022-12-31T07:07:17.435Z,102611.06
2022-12-31T07:10:22.773Z,102612.84
2022-12-31T07:13:23.778Z,102617.94
2022-12-31T07:16:05.237Z,102622.06
2022-12-31T07:18:43.553Z,102615.94
2022-12-31T07:21:17.638Z,102626.81
2022-12-31T07:23:47.521Z,102626.63
2022-12-31T07:26:31.539Z,102619.09
2022-12-31T07:29:15.064Z,102628.53
2022-12-31T07:32:09.064Z,102631.84
2022-12-31T07:35:04.021Z,102635.44
2022-12-31T07:37:57.586Z,102638.53
2022-12-31T07:40:57.814Z,102634.69
2022-12-31T07:43:50.368Z,102636.41
2022-12-31T07:46:43.648Z,102645.31
2022-12-31T07:49:12.580Z,102648.69
2022-12-31T07:51:46.280Z,102649.50
2022-12-31T07:54:16.024Z,102647.88
2022-12-31T07:56:44.455Z,102652.25
2022-12-31T07:59:24.670Z,102654.31
2022-12-31T08:02:03.403Z,102651.66
2022-12-31T08:04:53.060Z,102657.06
2022-12-31T08:07:57.131Z,102653.34
2022-12-31T08:10:39.672Z,102663.66
2022-12-31T08:13:10.988Z,102675.41
2022-12-31T08:15:41.743Z,102673.06
2022-12-31T08:18:17.656Z,102669.81
2022-12-31T08:21:12.555Z,102669.88
2022-12-31T08:23:48.524Z,102683.81
2022-12-31T08:26:37.303Z,102692.56
2022-12-31T08:29:22.832Z,102698.72
2022-12-31T08:32:17.159Z,102695.84
2022-12-31T08:34:55.965Z,102699.47
2022-12-31T08:37:51.035Z,102695.22
2022-12-31T08:40:45.517Z,102701.44
2022-12-31T08:43:19.460Z,102703.03
2022-12-31T08:45:51.759Z,102708.38
2022-12-31T08:48:23.251Z,102711.06
2022-12-31T08:50:50.279Z,102712.69
2022-12-31T08:53:17.402Z,102709.31
2022-12-31T08:55:46.506Z,102702.41
2022-12-31T08:58:28.054Z,102705.13
2022-12-31T09:00:59.489Z,102705.16
2022-12-31T09:03:50.870Z,102705.16
2022-12-31T09:06:41.318Z,102711.34
2022-12-31T09:09:26.536Z,102714.75
2022-12-31T09:12:36.410Z,102712.06
2022-12-31T09:15:14.275Z,102717.31
2022-12-31T09:17:52.524Z,102725.31
2022-12-31T09:20:44.724Z,102727.97
2022-12-31T09:23:13.038Z,102728.91
2022-12-31T09:26:04.177Z,102730.63
2022-12-31T09:28:43.445Z,102730.56
2022-12-31T09:31:30.458Z,102736.75
2022-12-31T09:34:09.882Z,102730.66
2022-12-31T09:36:54.279Z,102739.41
2022-12-31T09:39:46.882Z,102740.28
2022-12-31T09:42:44.203Z,102737.63
2022-12-31T09:45:38.344Z,102742.00
2022-12-31T09:48:28.348Z,102735.91
2022-12-31T09:51:25.502Z,102728.03
2022-12-31T09:54:28.386Z,102725.34
2022-12-31T09:57:18.459Z,102729.84
2022-12-31T10:00:08.861Z,102729.00
2022-12-31T10:02:49.685Z,102727.28
2022-12-31T10:05:52.230Z,102730.75
2022-12-31T10:08:51.390Z,102729.91
2022-12-31T10:11:58.952Z,102722.03
2022-12-31T10:15:25.161Z,102719.31
2022-12-31T10:18:44.244Z,102707.94
2022-12-31T10:21:47.449Z,102698.31
2022-12-31T10:24:32.989Z,102705.41
2022-12-31T10:27:27.851Z,102709.81
2022-12-31T10:30:14.909Z,102706.28
2022-12-31T10:33:02.525Z,102708.06
2022-12-31T10:35:54.825Z,102698.38
2022-12-31T10:38:58.015Z,102703.63
2022-12-31T10:41:55.803Z,102693.97
2022-12-31T10:44:46.966Z,102691.31
2022-12-31T10:47:22.786Z,102699.22
2022-12-31T10:50:34.558Z,102703.63
2022-12-31T10:53:24.035Z,102700.09
2022-12-31T10:56:25.950Z,102689.53
2022-12-31T10:59:11.701Z,102695.72
2022-12-31T11:02:16.148Z,102687.78
2022-12-31T11:04:58.254Z,102672.84
2022-12-31T11:07:44.087Z,102669.31
2022-12-31T11:10:41.668Z,102664.06
2022-12-31T11:13:34.024Z,102656.16
2022-12-31T11:16:24.586Z,102654.44
2022-12-31T11:19:06.418Z,102649.16
2022-12-31T11:21:52.872Z,102646.50
2022-12-31T11:24:24.992Z,102650.00
2022-12-31T11:27:12.787Z,102657.94
2022-12-31T11:30:03.497Z,102658.81
2022-12-31T11:32:56.749Z,102665.88
2022-12-31T11:35:43.714Z,102665.88
2022-12-31T11:38:26.369Z,102669.38
2022-12-31T11:41:31.558Z,102675.53
2022-12-31T11:44:19.737Z,102669.38
2022-12-31T11:47:02.421Z,102669.34
2022-12-31T11:49:29.114Z,102670.28
2022-12-31T11:52:21.817Z,102667.63
2022-12-31T11:54:52.367Z,102673.78
2022-12-31T11:57:36.515Z,102674.63
2022-12-31T12:00:20.872Z,102666.72
2022-12-31T12:03:05.278Z,102663.19
2022-12-31T12:05:37.020Z,102654.44
2022-12-31T12:08:22.540Z,102657.03
2022-12-31T12:10:56.801Z,102658.78
2022-12-31T12:13:27.548Z,102655.28
2022-12-31T12:16:04.679Z,102654.41
2022-12-31T12:18:38.945Z,102649.13
2022-12-31T12:21:12.518Z,102650.88
2022-12-31T12:23:40.763Z,102650.91
2022-12-31T12:26:29.210Z,102657.06
2022-12-31T12:29:17.524Z,102647.41
2022-12-31T12:32:20.900Z,102647.41
2022-12-31T12:34:58.585Z,102648.25
2022-12-31T12:37:35.677Z,102646.53
2022-12-31T12:40:09.616Z,102650.91
2022-12-31T12:42:36.556Z,102644.72
2022-12-31T12:45:09.688Z,102647.41
2022-12-31T12:47:37.190Z,102647.38
2022-12-31T12:50:05.325Z,102647.38
2022-12-31T12:53:12.145Z,102643.84
2022-12-31T12:56:23.302Z,102635.94
2022-12-31T12:59:24.475Z,102624.50
2022-12-31T13:02:08.814Z,102618.34
2022-12-31T13:05:07.763Z,102625.38
2022-12-31T13:08:04.328Z,102613.94
2022-12-31T13:11:01.470Z,102619.22
2022-12-31T13:14:00.254Z,102617.44
2022-12-31T13:16:39.584Z,102627.16
2022-12-31T13:19:23.103Z,102638.59
2022-12-31T13:22:16.594Z,102643.84
2022-12-31T13:25:31.029Z,102639.47
2022-12-31T13:28:05.408Z,102620.09
2022-12-31T13:30:43.463Z,102615.72
2022-12-31T13:33:18.818Z,102618.34
2022-12-31T13:35:51.082Z,102617.44
2022-12-31T13:38:21.776Z,102627.13
2022-12-31T13:40:55.647Z,102621.84
2022-12-31T13:44:05.792Z,102634.19
2022-12-31T13:46:47.151Z,102635.91
2022-12-31T13:49:21.473Z,102634.19
2022-12-31T13:52:18.112Z,102639.44
2022-12-31T13:55:04.843Z,102637.69
2022-12-31T13:57:52.633Z,102635.06
2022-12-31T14:00:31.444Z,102645.59
2022-12-31T14:03:24.884Z,102634.13
2022-12-31T14:06:00.364Z,102631.53
2022-12-31T14:08:28.034Z,102639.44
2022-12-31T14:11:09.442Z,102656.19
2022-12-31T14:14:13.240Z,102652.66
2022-12-31T14:17:20.523Z,102655.31
2022-12-31T14:20:02.103Z,102657.06
2022-12-31T14:22:38.028Z,102657.06
2022-12-31T14:25:22.550Z,102656.19
2022-12-31T14:27:52.762Z,102657.06
2022-12-31T14:30:25.950Z,102655.31
2022-12-31T14:33:30.300Z,102665.88
2022-12-31T14:36:21.427Z,102655.28
2022-12-31T14:39:20.731Z,102657.94
2022-12-31T14:42:06.488Z,102665.84
2022-12-31T14:45:05.481Z,102672.84
2022-12-31T14:47:47.886Z,102661.44
2022-12-31T14:50:21.281Z,102663.22
2022-12-31T14:52:51.149Z,102659.69
2022-12-31T14:55:29.218Z,102674.63
2022-12-31T14:58:27.037Z,102684.25
2022-12-31T15:00:59.850Z,102692.19
2022-12-31T15:03:47.044Z,102688.66
2022-12-31T15:06:23.052Z,102690.47
2022-12-31T15:09:38.343Z,102695.72
2022-12-31T15:12:07.202Z,102687.81
2022-12-31T15:15:02.965Z,102689.56
2022-12-31T15:18:14.076Z,102685.16
2022-12-31T15:21:01.191Z,102705.41
2022-12-31T15:23:47.021Z,102706.25
2022-12-31T15:26:24.711Z,102697.53
2022-12-31T15:29:21.458Z,102707.16
2022-12-31T15:31:50.123Z,102702.81
2022-12-31T15:34:39.399Z,102707.16
2022-12-31T15:37:26.399Z,102718.59
2022-12-31T15:40:09.797Z,102721.22
2022-12-31T15:42:58.882Z,102730.03
2022-12-31T15:45:37.593Z,102725.66
2022-12-31T15:48:14.811Z,102725.66
2022-12-31T15:50:49.355Z,102722.19
2022-12-31T15:53:28.983Z,102725.66
2022-12-31T15:55:58.389Z,102716.81
2022-12-31T15:58:35.967Z,102717.72
2022-12-31T16:01:13.424Z,102728.28
2022-12-31T16:03:46.072Z,102717.78
2022-12-31T16:06:15.237Z,102729.16
2022-12-31T16:08:46.403Z,102736.25
2022-12-31T16:11:13.410Z,102733.59
2022-12-31T16:13:44.410Z,102733.56
2022-12-31T16:16:28.867Z,102744.06
2022-12-31T16:18:58.085Z,102748.47
2022-12-31T16:21:36.116Z,102744.06
2022-12-31T16:24:25.062Z,102746.69
2022-12-31T16:26:59.363Z,102750.19
2022-12-31T16:29:31.041Z,102751.94
2022-12-31T16:31:58.622Z,102758.09
2022-12-31T16:34:29.885Z,102758.09
2022-12-31T16:37:02.575Z,102759.81
2022-12-31T16:39:45.391Z,102764.22
2022-12-31T16:42:20.185Z,102763.31
2022-12-31T16:45:33.313Z,102772.16
2022-12-31T16:48:17.204Z,102781.00
2022-12-31T16:50:54.942Z,102778.41
2022-12-31T16:53:30.008Z,102785.41
2022-12-31T16:56:09.358Z,102788.06
2022-12-31T16:58:44.096Z,102787.09
2022-12-31T17:03:47.529Z,102785.31
2022-12-31T17:06:20.342Z,102792.28
2022-12-31T17:09:00.951Z,102800.19
2022-12-31T17:11:33.221Z,102797.53
2022-12-31T17:14:09.624Z,102800.22
2022-12-31T17:17:03.151Z,102801.97
2022-12-31T17:19:39.046Z,102806.28
2022-12-31T17:22:36.997Z,102807.22
2022-12-31T17:25:07.428Z,102810.75
2022-12-31T17:27:39.895Z,102814.28
2022-12-31T17:30:37.533Z,102804.50
2022-12-31T17:33:13.667Z,102809.78
2022-12-31T17:35:45.071Z,102806.31
2022-12-31T17:38:28.132Z,102812.47
2022-12-31T17:43:40.639Z,102813.34
2022-12-31T17:46:16.585Z,102823.06
2022-12-31T17:48:49.852Z,102807.31
2022-12-31T17:51:24.167Z,102807.34
2022-12-31T17:53:51.625Z,102803.72
2022-12-31T17:56:19.981Z,102808.91
2022-12-31T17:58:51.653Z,102804.63
2022-12-31T18:01:21.869Z,102808.06
2022-12-31T18:03:51.034Z,102801.97
2022-12-31T18:06:19.898Z,102792.25
2022-12-31T18:08:49.745Z,102800.94
2022-12-31T18:11:22.751Z,102807.03
2022-12-31T18:13:50.002Z,102810.47
2022-12-31T18:16:17.115Z,102809.50
2022-12-31T18:18:45.652Z,102812.13
2022-12-31T18:21:43.092Z,102816.53
2022-12-31T18:24:24.235Z,102818.19
2022-12-31T18:26:52.864Z,102819.88
2022-12-31T18:29:20.213Z,102816.34
2022-12-31T18:31:49.483Z,102827.66
2022-12-31T18:34:27.412Z,102823.22
2022-12-31T18:37:02.176Z,102824.06
2022-12-31T18:39:29.201Z,102826.69
2022-12-31T18:41:58.246Z,102831.88
2022-12-31T18:44:27.306Z,102838.88
2022-12-31T18:46:54.176Z,102845.06
2022-12-31T18:49:24.054Z,102840.09
2022-12-31T18:51:54.316Z,102848.75
2022-12-31T18:54:21.716Z,102855.66
2022-12-31T18:56:53.921Z,102851.25
2022-12-31T18:59:26.524Z,102856.38
2022-12-31T19:01:58.778Z,102855.34
2022-12-31T19:04:28.498Z,102852.78
2022-12-31T19:06:59.164Z,102849.69
2022-12-31T19:12:16.424Z,102855.41
2022-12-31T19:14:49.446Z,102847.53
2022-12-31T19:17:19.386Z,102841.81
2022-12-31T19:19:46.286Z,102839.06
2022-12-31T19:22:16.483Z,102839.69
2022-12-31T19:24:45.281Z,102844.81
2022-12-31T19:27:17.242Z,102846.47
2022-12-31T19:29:45.512Z,102847.22
2022-12-31T19:32:12.711Z,102844.94
2022-12-31T19:34:53.703Z,102846.50
2022-12-31T19:37:20.666Z,102857.69
2022-12-31T19:39:49.333Z,102859.28
2022-12-31T19:42:17.023Z,102865.31
2022-12-31T19:44:46.426Z,102863.53
2022-12-31T19:47:15.022Z,102876.59
2022-12-31T19:49:41.915Z,102874.84
2022-12-31T19:52:08.726Z,102876.59
2022-12-31T19:54:37.182Z,102867.91
2022-12-31T19:57:29.634Z,102871.25
2022-12-31T19:59:58.935Z,102877.50
2022-12-31T20:02:31.198Z,102876.13
2022-12-31T20:05:01.198Z,102878.53
2022-12-31T20:07:37.297Z,102875.06
2022-12-31T20:10:08.215Z,102875.28
2022-12-31T20:12:42.320Z,102873.44
2022-12-31T20:15:12.604Z,102882.25
2022-12-31T20:17:46.909Z,102886.91
2022-12-31T20:20:14.023Z,102882.53
2022-12-31T20:22:50.564Z,102891.25
2022-12-31T20:25:17.904Z,102890.31
2022-12-31T20:27:47.763Z,102899.13
2022-12-31T20:30:16.702Z,102899.91
2022-12-31T20:32:52.860Z,102903.34
2022-12-31T20:35:20.601Z,102905.09
2022-12-31T20:37:51.265Z,102921.69
2022-12-31T20:40:18.149Z,102905.09
2022-12-31T20:42:44.920Z,102899.84
2022-12-31T20:45:12.103Z,102905.88
2022-12-31T20:47:44.340Z,102909.19
2022-12-31T20:50:12.443Z,102898.69
2022-12-31T20:52:41.307Z,102903.91
2022-12-31T20:55:13.958Z,102901.25
2022-12-31T20:57:44.045Z,102897.63
2022-12-31T21:00:16.597Z,102900.97
2022-12-31T21:03:03.917Z,102901.13
2022-12-31T21:05:40.142Z,102885.53
2022-12-31T21:08:07.269Z,102889.19
2022-12-31T21:10:36.809Z,102886.44
2022-12-31T21:13:06.097Z,102894.19
2022-12-31T21:15:34.310Z,102885.81
2022-12-31T21:18:01.238Z,102894.91
2022-12-31T21:20:28.200Z,102885.00
2022-12-31T21:23:01.542Z,102892.53
2022-12-31T21:25:28.752Z,102891.28
2022-12-31T21:27:55.797Z,102893.59
2022-12-31T21:30:29.528Z,102901.41
2022-12-31T21:32:56.441Z,102898.56
2022-12-31T21:35:48.400Z,102895.88
2022-12-31T21:38:15.183Z,102891.22
2022-12-31T21:40:42.368Z,102890.03
2022-12-31T21:43:12.809Z,102902.06
2022-12-31T21:46:01.282Z,102897.28
2022-12-31T21:48:28.362Z,102888.44
2022-12-31T21:51:10.118Z,102886.59
2022-12-31T21:53:37.705Z,102893.09
2022-12-31T21:56:12.250Z,102904.19
2022-12-31T21:58:47.579Z,102889.03
2022-12-31T22:01:38.608Z,102895.00
2022-12-31T22:04:07.953Z,102885.22
2022-12-31T22:06:46.451Z,102880.88
2022-12-31T22:09:13.408Z,102886.31
2022-12-31T22:11:42.791Z,102885.56
2022-12-31T22:14:15.842Z,102874.09
2022-12-31T22:16:46.936Z,102879.84
2022-12-31T22:19:17.120Z,102873.59
2022-12-31T22:21:44.116Z,102883.97
2022-12-31T22:24:13.360Z,102880.44
2022-12-31T22:26:46.678Z,102878.63
2022-12-31T22:29:13.928Z,102879.34
2022-12-31T22:31:44.465Z,102883.66
2022-12-31T22:34:11.362Z,102881.72
2022-12-31T22:36:38.209Z,102883.41
2022-12-31T22:39:05.087Z,102880.81
2022-12-31T22:41:32.121Z,102879.03
2022-12-31T22:44:04.432Z,102872.25
2022-12-31T22:46:36.140Z,102868.53
2022-12-31T22:49:07.312Z,102872.00
2022-12-31T22:51:56.859Z,102870.16
2022-12-31T22:54:31.893Z,102866.72
2022-12-31T22:56:58.878Z,102871.03
2022-12-31T22:59:25.747Z,102865.78
2022-12-31T23:02:16.699Z,102868.41
2022-12-31T23:04:49.919Z,102859.88
2022-12-31T23:07:19.212Z,102859.56
2022-12-31T23:10:04.727Z,102862.94
2022-12-31T23:12:31.764Z,102863.00
2022-12-31T23:15:17.343Z,102866.50
2022-12-31T23:18:07.124Z,102864.09
2022-12-31T23:20:52.728Z,102857.81
2022-12-31T23:26:02.334Z,102865.56
2022-12-31T23:28:29.274Z,102871.91
2022-12-31T23:30:56.259Z,102866.63
2022-12-31T23:33:26.925Z,102869.22
2022-12-31T23:36:12.842Z,102874.38
2022-12-31T23:38:39.818Z,102879.25
2022-12-31T23:41:14.632Z,102873.56
2022-12-31T23:43:47.519Z,102876.94
2022-12-31T23:46:16.217Z,102887.50
2022-12-31T23:48:43.837Z,102880.44
2022-12-31T23:51:16.978Z,102886.44
2022-12-31T23:53:43.835Z,102884.69
2022-12-31T23:56:23.357Z,102876.88
2022-12-31T23:58:55.955Z,102875.09
